createdAt,value
2018-07-10T00:00:29.949Z,0
2018-07-10T00:01:40.029Z,0
2018-07-10T00:02:50.095Z,0
2018-07-10T00:04:00.180Z,0
2018-07-10T00:05:09.704Z,0
2018-07-10T00:06:19.292Z,0
2018-07-10T00:07:29.354Z,0
2018-07-10T00:08:38.880Z,0
2018-07-10T00:09:48.683Z,0
2018-07-10T00:10:58.217Z,0
2018-07-10T00:12:08.071Z,0
2018-07-10T00:13:17.958Z,0
2018-07-10T00:14:27.762Z,0
2018-07-10T00:15:37.806Z,0
2018-07-10T00:16:47.598Z,0
2018-07-10T00:17:57.723Z,0
2018-07-10T00:19:07.801Z,0
2018-07-10T00:20:17.872Z,0
2018-07-10T00:21:27.671Z,0
2018-07-10T00:22:37.759Z,0
2018-07-10T00:23:47.649Z,0
2018-07-10T00:24:57.449Z,0
2018-07-10T00:26:07.539Z,0
2018-07-10T00:27:17.332Z,0
2018-07-10T00:28:27.131Z,0
2018-07-10T00:29:36.989Z,0
2018-07-10T00:30:47.064Z,4
2018-07-10T00:31:57.137Z,4
2018-07-10T00:33:06.941Z,4
2018-07-10T00:34:16.998Z,4
2018-07-10T00:35:26.864Z,4
2018-07-10T00:36:36.666Z,0
2018-07-10T00:37:46.470Z,0
2018-07-10T00:38:56.271Z,0
2018-07-10T00:40:05.790Z,0
2018-07-10T00:41:15.631Z,0
2018-07-10T00:42:25.712Z,4
2018-07-10T00:43:35.786Z,4
2018-07-10T00:44:45.869Z,4
2018-07-10T00:45:55.936Z,4
2018-07-10T00:47:05.787Z,0
2018-07-10T00:48:15.580Z,0
2018-07-10T00:49:25.109Z,0
2018-07-10T00:50:34.653Z,4
2018-07-10T00:51:44.743Z,4
2018-07-10T00:52:54.866Z,4
2018-07-10T00:54:04.649Z,0
2018-07-10T00:55:14.711Z,4
2018-07-10T00:56:24.510Z,4
2018-07-10T00:57:34.307Z,8
2018-07-10T00:58:44.413Z,4
2018-07-10T00:59:54.467Z,4
2018-07-10T01:01:04.256Z,8
2018-07-10T01:02:14.305Z,4
2018-07-10T01:03:23.824Z,8
2018-07-10T01:04:33.955Z,8
2018-07-10T01:05:43.757Z,8
2018-07-10T01:06:53.568Z,8
2018-07-10T01:08:03.653Z,8
2018-07-10T01:09:13.463Z,12
2018-07-10T01:10:23.066Z,12
2018-07-10T01:11:33.158Z,8
2018-07-10T01:12:42.420Z,12
2018-07-10T01:13:52.234Z,12
2018-07-10T01:15:02.521Z,16
2018-07-10T01:16:12.357Z,16
2018-07-10T01:17:22.421Z,16
2018-07-10T01:18:32.488Z,20
2018-07-10T01:19:42.283Z,20
2018-07-10T01:20:52.348Z,20
2018-07-10T01:22:02.531Z,24
2018-07-10T01:23:12.327Z,24
2018-07-10T01:24:22.380Z,24
2018-07-10T01:25:32.172Z,28
2018-07-10T01:26:42.241Z,28
2018-07-10T01:27:52.368Z,32
2018-07-10T01:29:02.168Z,36
2018-07-10T01:30:12.266Z,36
2018-07-10T01:31:21.533Z,40
2018-07-10T01:32:31.600Z,40
2018-07-10T01:33:41.668Z,40
2018-07-10T01:34:50.975Z,48
2018-07-10T01:36:00.766Z,52
2018-07-10T01:37:09.751Z,52
2018-07-10T01:38:19.544Z,56
2018-07-10T01:39:29.703Z,64
2018-07-10T01:40:39.498Z,64
2018-07-10T01:41:49.303Z,68
2018-07-10T01:42:59.122Z,72
2018-07-10T01:44:08.948Z,80
2018-07-10T01:45:18.826Z,84
2018-07-10T01:46:28.627Z,92
2018-07-10T01:47:38.417Z,96
2018-07-10T01:48:48.207Z,100
2018-07-10T01:49:58.009Z,108
2018-07-10T01:51:11.702Z,112
2018-07-10T01:52:21.771Z,120
2018-07-10T01:53:31.838Z,132
2018-07-10T01:54:41.638Z,136
2018-07-10T01:55:51.439Z,144
2018-07-10T01:57:01.555Z,156
2018-07-10T01:58:11.624Z,164
2018-07-10T01:59:21.424Z,176
2018-07-10T02:00:31.487Z,184
2018-07-10T02:01:41.557Z,196
2018-07-10T02:02:51.418Z,204
2018-07-10T02:04:01.268Z,216
2018-07-10T02:05:11.062Z,228
2018-07-10T02:06:20.872Z,236
2018-07-10T02:07:30.958Z,248
2018-07-10T02:08:41.083Z,268
2018-07-10T02:09:50.881Z,280
2018-07-10T02:11:00.965Z,292
2018-07-10T02:12:11.037Z,304
2018-07-10T02:13:21.096Z,324
2018-07-10T02:14:30.918Z,340
2018-07-10T02:15:41.039Z,352
2018-07-10T02:16:50.570Z,372
2018-07-10T02:18:00.365Z,388
2018-07-10T02:19:10.428Z,404
2018-07-10T02:20:20.550Z,424
2018-07-10T02:21:30.616Z,440
2018-07-10T02:22:40.689Z,460
2018-07-10T02:23:50.756Z,476
2018-07-10T02:25:00.817Z,496
2018-07-10T02:26:10.666Z,516
2018-07-10T02:27:20.468Z,536
2018-07-10T02:28:30.525Z,560
2018-07-10T02:29:40.589Z,580
2018-07-10T02:30:50.683Z,600
2018-07-10T02:32:00.807Z,624
2018-07-10T02:33:10.886Z,644
2018-07-10T02:34:21.031Z,660
2018-07-10T02:35:31.086Z,680
2018-07-10T02:36:40.616Z,704
2018-07-10T02:37:50.758Z,728
2018-07-10T02:39:00.565Z,752
2018-07-10T02:40:10.375Z,776
2018-07-10T02:41:20.170Z,796
2018-07-10T02:42:29.972Z,820
2018-07-10T02:43:40.097Z,840
2018-07-10T02:44:49.622Z,864
2018-07-10T02:45:59.721Z,884
2018-07-10T02:47:09.257Z,908
2018-07-10T02:48:19.058Z,932
2018-07-10T02:49:29.194Z,956
2018-07-10T02:50:38.986Z,980
2018-07-10T02:51:48.811Z,1004
2018-07-10T02:52:58.884Z,1024
2018-07-10T02:54:08.993Z,1048
2018-07-10T02:55:19.111Z,1072
2018-07-10T02:56:28.902Z,1096
2018-07-10T02:57:38.969Z,1116
2018-07-10T02:58:48.757Z,1136
2018-07-10T02:59:58.554Z,1160
2018-07-10T03:03:46.809Z,1232
2018-07-10T03:04:56.359Z,1256
2018-07-10T03:06:05.904Z,1276
2018-07-10T03:07:15.424Z,1300
2018-07-10T03:08:25.230Z,1320
2018-07-10T03:09:35.347Z,1340
2018-07-10T03:10:44.874Z,1364
2018-07-10T03:11:54.666Z,1384
2018-07-10T03:13:04.719Z,1404
2018-07-10T03:14:14.250Z,1428
2018-07-10T03:15:24.105Z,1444
2018-07-10T03:16:34.167Z,1468
2018-07-10T03:17:44.242Z,1488
2018-07-10T03:18:54.332Z,1512
2018-07-10T03:20:03.864Z,1528
2018-07-10T03:21:13.160Z,1552
2018-07-10T03:22:23.234Z,1572
2018-07-10T03:23:32.756Z,1592
2018-07-10T03:24:42.558Z,1616
2018-07-10T03:25:52.617Z,1636
2018-07-10T03:27:02.485Z,1652
2018-07-10T03:28:12.283Z,1676
2018-07-10T03:29:22.365Z,1692
2018-07-10T03:30:31.634Z,1712
2018-07-10T03:31:41.730Z,1732
2018-07-10T03:32:51.868Z,1748
2018-07-10T03:34:01.934Z,1764
2018-07-10T03:35:11.737Z,1784
2018-07-10T03:36:21.583Z,1804
2018-07-10T03:37:31.727Z,1820
2018-07-10T03:38:41.846Z,1836
2018-07-10T03:39:51.664Z,1852
2018-07-10T03:41:01.203Z,1868
2018-07-10T03:42:11.006Z,1880
2018-07-10T03:43:20.951Z,1896
2018-07-10T03:44:31.282Z,1916
2018-07-10T03:45:41.557Z,1932
2018-07-10T03:46:51.836Z,1948
2018-07-10T03:48:01.837Z,1968
2018-07-10T03:49:12.116Z,1980
2018-07-10T03:50:22.447Z,2000
2018-07-10T03:51:32.450Z,2012
2018-07-10T03:52:42.727Z,2028
2018-07-10T03:53:52.724Z,2048
2018-07-10T03:55:02.997Z,2056
2018-07-10T03:56:12.763Z,2072
2018-07-10T03:57:23.042Z,2080
2018-07-10T03:58:33.035Z,2088
2018-07-10T03:59:43.030Z,2100
2018-07-10T04:00:53.304Z,2104
2018-07-10T04:02:03.349Z,2100
2018-07-10T04:03:13.346Z,2112
2018-07-10T04:04:23.339Z,2120
2018-07-10T04:05:33.632Z,2128
2018-07-10T04:06:43.920Z,2140
2018-07-10T04:07:54.251Z,2128
2018-07-10T04:09:04.021Z,2124
2018-07-10T04:10:14.077Z,2128
2018-07-10T04:11:24.402Z,2164
2018-07-10T04:12:34.395Z,2048
2018-07-10T04:13:44.727Z,2112
2018-07-10T04:14:55.003Z,1996
2018-07-10T04:16:05.287Z,1976
2018-07-10T04:17:15.281Z,1968
2018-07-10T04:18:25.565Z,1972
2018-07-10T04:19:35.904Z,1988
2018-07-10T04:20:45.618Z,2004
2018-07-10T04:21:55.613Z,2048
2018-07-10T04:23:05.892Z,2140
2018-07-10T04:24:15.886Z,2384
2018-07-10T04:25:25.644Z,2340
2018-07-10T04:26:35.353Z,2628
2018-07-10T04:27:45.684Z,2744
2018-07-10T04:28:56.267Z,2816
2018-07-10T04:30:06.095Z,2796
2018-07-10T04:31:16.425Z,2856
2018-07-10T04:32:26.706Z,2840
2018-07-10T04:33:36.977Z,2660
2018-07-10T04:34:47.265Z,2672
2018-07-10T04:35:57.547Z,2536
2018-07-10T04:37:07.345Z,2676
2018-07-10T04:38:17.340Z,2720
2018-07-10T04:39:27.335Z,2728
2018-07-10T04:40:37.616Z,2860
2018-07-10T04:41:47.332Z,2768
2018-07-10T04:42:57.667Z,2872
2018-07-10T04:44:07.670Z,2936
2018-07-10T04:45:17.948Z,2900
2018-07-10T04:46:27.664Z,2776
2018-07-10T04:47:37.669Z,2684
2018-07-10T04:48:48.003Z,2620
2018-07-10T04:49:58.003Z,2564
2018-07-10T04:51:08.022Z,2532
2018-07-10T04:52:18.019Z,2556
2018-07-10T04:53:27.443Z,2580
2018-07-10T04:54:37.488Z,2588
2018-07-10T04:55:47.765Z,2592
2018-07-10T04:56:58.053Z,2640
2018-07-10T04:58:08.334Z,2708
2018-07-10T04:59:18.614Z,2752
2018-07-10T05:00:28.657Z,2736
2018-07-10T05:01:38.381Z,2724
2018-07-10T05:02:48.372Z,2716
2018-07-10T05:03:58.378Z,2704
2018-07-10T05:05:08.088Z,2768
2018-07-10T05:06:18.413Z,2856
2018-07-10T05:07:28.411Z,2960
2018-07-10T05:08:38.417Z,3040
2018-07-10T05:09:48.413Z,3092
2018-07-10T05:10:58.410Z,3084
2018-07-10T05:12:08.962Z,2988
2018-07-10T05:13:19.382Z,2892
2018-07-10T05:14:29.676Z,2880
2018-07-10T05:15:39.666Z,2972
2018-07-10T05:16:49.659Z,2904
2018-07-10T05:17:59.704Z,2756
2018-07-10T05:19:09.702Z,2732
2018-07-10T05:20:19.419Z,2652
2018-07-10T05:21:29.411Z,2540
2018-07-10T05:22:39.409Z,2472
2018-07-10T05:23:49.740Z,2468
2018-07-10T05:24:59.450Z,2460
2018-07-10T05:26:09.445Z,2452
2018-07-10T05:27:19.722Z,2600
2018-07-10T05:28:30.006Z,2520
2018-07-10T05:29:40.045Z,2504
2018-07-10T05:30:50.322Z,2536
2018-07-10T05:32:00.322Z,2544
2018-07-10T05:33:10.601Z,2840
2018-07-10T05:34:20.606Z,2868
2018-07-10T05:35:30.660Z,2756
2018-07-10T05:36:40.940Z,2644
2018-07-10T05:37:50.649Z,2796
2018-07-10T05:39:00.641Z,2880
2018-07-10T05:40:09.786Z,2896
2018-07-10T05:41:20.131Z,2900
2018-07-10T05:42:30.410Z,2900
2018-07-10T05:43:40.699Z,2904
2018-07-10T05:44:50.693Z,2904
2018-07-10T05:46:00.730Z,2908
2018-07-10T05:47:11.067Z,2912
2018-07-10T05:48:20.776Z,2912
2018-07-10T05:49:30.768Z,2908
2018-07-10T05:50:40.762Z,2912
2018-07-10T05:51:51.000Z,2916
2018-07-10T05:53:01.448Z,2916
2018-07-10T05:54:11.453Z,2916
2018-07-10T05:55:21.732Z,2920
2018-07-10T05:56:32.014Z,2920
2018-07-10T05:57:42.344Z,2928
2018-07-10T05:58:52.998Z,2932
2018-07-10T06:00:02.424Z,2936
2018-07-10T06:01:12.139Z,2940
2018-07-10T06:02:22.422Z,2948
2018-07-10T06:03:32.705Z,2948
2018-07-10T06:04:43.307Z,2952
2018-07-10T06:05:53.225Z,2952
2018-07-10T06:07:02.937Z,2952
2018-07-10T06:08:12.366Z,2956
2018-07-10T06:09:22.652Z,2960
2018-07-10T06:10:32.828Z,2964
2018-07-10T06:11:43.011Z,2968
2018-07-10T06:12:53.301Z,2968
2018-07-10T06:14:03.473Z,2968
2018-07-10T06:15:14.051Z,2968
2018-07-10T06:16:24.142Z,2976
2018-07-10T06:17:34.168Z,2980
2018-07-10T06:18:44.448Z,2988
2018-07-10T06:19:54.447Z,2996
2018-07-10T06:21:04.734Z,3000
2018-07-10T06:22:14.845Z,3000
2018-07-10T06:23:25.211Z,3008
2018-07-10T06:24:35.501Z,3012
2018-07-10T06:25:45.787Z,3016
2018-07-10T06:26:56.064Z,3016
2018-07-10T06:28:05.835Z,3016
2018-07-10T06:29:15.840Z,3020
2018-07-10T06:30:25.713Z,3028
2018-07-10T06:31:35.919Z,3032
2018-07-10T06:32:45.918Z,3036
2018-07-10T06:33:55.968Z,3036
2018-07-10T06:35:06.251Z,3040
2018-07-10T06:36:16.255Z,3044
2018-07-10T06:37:26.538Z,3052
2018-07-10T06:38:35.973Z,3052
2018-07-10T06:39:45.556Z,3060
2018-07-10T06:40:55.584Z,3064
2018-07-10T06:42:05.869Z,3072
2018-07-10T06:43:15.586Z,3076
2018-07-10T06:44:25.868Z,3080
2018-07-10T06:45:35.631Z,3088
2018-07-10T06:46:45.402Z,3096
2018-07-10T06:47:55.464Z,3104
2018-07-10T06:49:04.893Z,3104
2018-07-10T06:50:14.888Z,3108
2018-07-10T06:51:25.224Z,3112
2018-07-10T06:52:36.154Z,3116
2018-07-10T06:53:45.837Z,3120
2018-07-10T06:54:56.131Z,3124
2018-07-10T06:56:06.424Z,3128
2018-07-10T06:57:16.756Z,3132
2018-07-10T06:58:26.467Z,3136
2018-07-10T06:59:35.896Z,3140
2018-07-10T07:00:46.082Z,3148
2018-07-10T07:01:56.291Z,3152
2018-07-10T07:03:06.353Z,3156
2018-07-10T07:04:16.356Z,3160
2018-07-10T07:05:26.361Z,3168
2018-07-10T07:06:36.697Z,3176
2018-07-10T07:07:46.934Z,3180
2018-07-10T07:08:57.290Z,3188
2018-07-10T07:10:07.295Z,3192
2018-07-10T07:11:17.585Z,3196
2018-07-10T07:12:27.300Z,3204
2018-07-10T07:13:37.297Z,3216
2018-07-10T07:14:47.345Z,3216
2018-07-10T07:15:57.155Z,3220
2018-07-10T07:17:07.525Z,3228
2018-07-10T07:18:17.520Z,3236
2018-07-10T07:19:27.803Z,3244
2018-07-10T07:20:38.141Z,3244
2018-07-10T07:21:47.577Z,3248
2018-07-10T07:22:57.590Z,3256
2018-07-10T07:24:07.596Z,3260
2018-07-10T07:25:17.596Z,3260
2018-07-10T07:26:27.653Z,3264
2018-07-10T07:27:37.651Z,3272
2018-07-10T07:28:47.931Z,3276
2018-07-10T07:29:57.925Z,3288
2018-07-10T07:31:08.203Z,3296
2018-07-10T07:32:18.536Z,3300
2018-07-10T07:33:28.817Z,3308
2018-07-10T07:34:39.117Z,3316
2018-07-10T07:35:49.401Z,3320
2018-07-10T07:36:59.687Z,3332
2018-07-10T07:38:09.170Z,3336
2018-07-10T07:39:18.892Z,3340
2018-07-10T07:40:28.896Z,3352
2018-07-10T07:41:38.895Z,3352
2018-07-10T07:42:48.899Z,3364
2018-07-10T07:43:59.506Z,3368
2018-07-10T07:45:09.842Z,3376
2018-07-10T07:46:20.121Z,3380
2018-07-10T07:47:30.118Z,3388
2018-07-10T07:48:40.407Z,3400
2018-07-10T07:49:50.178Z,3400
2018-07-10T07:51:00.458Z,3408
2018-07-10T07:52:10.173Z,3412
2018-07-10T07:53:20.175Z,3420
2018-07-10T07:54:29.604Z,3424
2018-07-10T07:55:39.936Z,3428
2018-07-10T07:56:50.217Z,3440
2018-07-10T07:58:00.504Z,3448
2018-07-10T07:59:10.783Z,3452
2018-07-10T08:00:20.522Z,3452
2018-07-10T08:01:30.311Z,3460
2018-07-10T08:02:40.312Z,3468
2018-07-10T08:03:50.600Z,3480
2018-07-10T08:05:00.951Z,3484
2018-07-10T08:06:10.974Z,3492
2018-07-10T08:07:21.306Z,3500
2018-07-10T08:08:31.314Z,3508
2018-07-10T08:09:41.310Z,3520
2018-07-10T08:10:51.306Z,3524
2018-07-10T08:12:01.597Z,3536
2018-07-10T08:13:12.244Z,3544
2018-07-10T08:14:22.240Z,3556
2018-07-10T08:15:32.240Z,3564
2018-07-10T08:16:42.527Z,3572
2018-07-10T08:17:52.529Z,3580
2018-07-10T08:19:02.866Z,3592
2018-07-10T08:20:12.597Z,3596
2018-07-10T08:21:22.598Z,3604
2018-07-10T08:22:32.621Z,3616
2018-07-10T08:23:42.620Z,3628
2018-07-10T08:24:52.951Z,3636
2018-07-10T08:26:03.232Z,3640
2018-07-10T08:27:13.522Z,3648
2018-07-10T08:28:23.521Z,3660
2018-07-10T08:29:33.523Z,3668
2018-07-10T08:30:43.573Z,3684
2018-07-10T08:31:53.897Z,3696
2018-07-10T08:33:03.917Z,3704
2018-07-10T08:34:13.817Z,3712
2018-07-10T08:35:23.821Z,3724
2018-07-10T08:36:34.153Z,3732
2018-07-10T08:37:44.153Z,3748
2018-07-10T08:38:54.437Z,3760
2018-07-10T08:40:04.766Z,3768
2018-07-10T08:41:14.776Z,3780
2018-07-10T08:42:24.540Z,3792
2018-07-10T08:43:34.544Z,3800
2018-07-10T08:44:44.547Z,3808
2018-07-10T08:45:54.545Z,3824
2018-07-10T08:47:04.560Z,3836
2018-07-10T08:48:14.620Z,3852
2018-07-10T08:49:24.905Z,3860
2018-07-10T08:50:35.033Z,3868
2018-07-10T08:51:45.044Z,3876
2018-07-10T08:52:55.051Z,3892
2018-07-10T08:54:05.110Z,3900
2018-07-10T08:55:14.832Z,3908
2018-07-10T08:56:24.836Z,3912
2018-07-10T08:57:35.125Z,3928
2018-07-10T08:58:45.124Z,3936
2018-07-10T08:59:55.187Z,3952
2018-07-10T09:01:05.726Z,3960
2018-07-10T09:02:15.728Z,3968
2018-07-10T09:03:25.735Z,3976
2018-07-10T09:04:36.018Z,3988
2018-07-10T09:05:46.363Z,3996
2018-07-10T09:06:56.371Z,4008
2018-07-10T09:08:06.718Z,4020
2018-07-10T09:09:17.119Z,4028
2018-07-10T09:10:27.405Z,4036
2018-07-10T09:11:37.332Z,4048
2018-07-10T09:12:47.349Z,4060
2018-07-10T09:13:57.479Z,4068
2018-07-10T09:15:07.286Z,4076
2018-07-10T09:16:16.939Z,4092
2018-07-10T09:17:27.121Z,4100
2018-07-10T09:18:36.383Z,4108
2018-07-10T09:19:46.196Z,4120
2018-07-10T09:20:56.263Z,4128
2018-07-10T09:22:05.804Z,4144
2018-07-10T09:23:16.227Z,4152
2018-07-10T09:24:26.528Z,4168
2018-07-10T09:25:35.885Z,4176
2018-07-10T09:26:45.977Z,4192
2018-07-10T09:27:55.778Z,4204
2018-07-10T09:29:05.390Z,4216
2018-07-10T09:30:15.484Z,4228
2018-07-10T09:31:25.028Z,4240
2018-07-10T09:32:35.105Z,4248
2018-07-10T09:33:44.961Z,4264
2018-07-10T09:34:55.218Z,4280
2018-07-10T09:36:05.307Z,4292
2018-07-10T09:37:15.138Z,4296
2018-07-10T09:38:25.398Z,4316
2018-07-10T09:39:34.927Z,4328
2018-07-10T09:40:44.778Z,4336
2018-07-10T09:41:54.848Z,4348
2018-07-10T09:43:04.910Z,4364
2018-07-10T09:44:15.322Z,4372
2018-07-10T09:45:24.952Z,4380
2018-07-10T09:46:35.089Z,4392
2018-07-10T09:47:44.896Z,4400
2018-07-10T09:48:54.168Z,4408
2018-07-10T09:50:04.233Z,4420
2018-07-10T09:51:14.325Z,4432
2018-07-10T09:52:24.444Z,4440
2018-07-10T09:53:34.530Z,4456
2018-07-10T09:54:44.874Z,4460
2018-07-10T09:55:54.784Z,4476
2018-07-10T09:57:04.050Z,4484
2018-07-10T09:58:13.927Z,4488
2018-07-10T09:59:23.994Z,4500
2018-07-10T10:00:33.535Z,4508
2018-07-10T10:01:43.347Z,4520
2018-07-10T10:02:53.181Z,4528
2018-07-10T10:04:03.304Z,4536
2018-07-10T10:05:13.385Z,4548
2018-07-10T10:06:22.897Z,4560
2018-07-10T10:07:32.967Z,4572
2018-07-10T10:08:42.795Z,4580
2018-07-10T10:09:52.643Z,4592
2018-07-10T10:11:02.721Z,4608
2018-07-10T10:12:12.235Z,4624
2018-07-10T10:13:22.329Z,4648
2018-07-10T10:14:32.145Z,4668
2018-07-10T10:15:42.015Z,4692
2018-07-10T10:16:51.810Z,4712
2018-07-10T10:18:01.619Z,4728
2018-07-10T10:19:11.411Z,4740
2018-07-10T10:20:21.220Z,4760
2018-07-10T10:21:31.343Z,4788
2018-07-10T10:22:41.409Z,4812
2018-07-10T10:23:51.204Z,4832
2018-07-10T10:25:00.745Z,4852
2018-07-10T10:26:10.537Z,4876
2018-07-10T10:27:20.401Z,4900
2018-07-10T10:28:30.464Z,4916
2018-07-10T10:29:39.985Z,4940
2018-07-10T10:30:49.258Z,4952
2018-07-10T10:31:58.794Z,4972
2018-07-10T10:33:08.650Z,4988
2018-07-10T10:34:18.714Z,5004
2018-07-10T10:35:28.274Z,5024
2018-07-10T10:36:38.090Z,5040
2018-07-10T10:37:48.164Z,5064
2018-07-10T10:38:58.290Z,5076
2018-07-10T10:40:08.099Z,5100
2018-07-10T10:41:18.186Z,5136
2018-07-10T10:42:28.287Z,5156
2018-07-10T10:43:37.811Z,5160
2018-07-10T10:44:47.118Z,5180
2018-07-10T10:45:56.937Z,5180
2018-07-10T10:47:06.752Z,5196
2018-07-10T10:48:16.563Z,5212
2018-07-10T10:49:26.325Z,5220
2018-07-10T10:50:36.541Z,5232
2018-07-10T10:51:46.619Z,5248
2018-07-10T10:52:56.431Z,5268
2018-07-10T10:54:06.236Z,5288
2018-07-10T10:55:15.767Z,5304
2018-07-10T10:56:25.073Z,5324
2018-07-10T10:57:34.867Z,5344
2018-07-10T10:58:44.943Z,5364
2018-07-10T10:59:54.726Z,5384
2018-07-10T11:01:04.270Z,5404
2018-07-10T11:02:14.416Z,5432
2018-07-10T11:03:24.298Z,5444
2018-07-10T11:04:34.091Z,5472
2018-07-10T11:05:43.914Z,5496
2018-07-10T11:06:53.723Z,5520
2018-07-10T11:08:04.379Z,5552
2018-07-10T11:09:13.382Z,5576
2018-07-10T11:10:23.474Z,5592
2018-07-10T11:11:33.340Z,5604
2018-07-10T11:12:43.154Z,5624
2018-07-10T11:13:52.744Z,5656
2018-07-10T11:15:02.825Z,5676
2018-07-10T11:16:12.356Z,5708
2018-07-10T11:17:22.440Z,5748
2018-07-10T11:18:32.537Z,5788
2018-07-10T11:19:42.129Z,5820
2018-07-10T11:20:51.648Z,5864
2018-07-10T11:22:01.171Z,5908
2018-07-10T11:23:10.993Z,5940
2018-07-10T11:24:21.071Z,5968
2018-07-10T11:25:31.211Z,5992
2018-07-10T11:26:41.288Z,6016
2018-07-10T11:27:51.357Z,6040
2018-07-10T11:29:01.159Z,6068
2018-07-10T11:30:11.232Z,6092
2018-07-10T11:31:21.080Z,6112
2018-07-10T11:32:31.158Z,6152
2018-07-10T11:33:40.979Z,6224
2018-07-10T11:34:50.789Z,6288
2018-07-10T11:36:00.597Z,6328
2018-07-10T11:37:09.641Z,6400
2018-07-10T11:38:19.931Z,6644
2018-07-10T11:39:30.166Z,7276
2018-07-10T11:40:39.698Z,8752
2018-07-10T11:41:49.523Z,31520
2018-07-10T11:42:59.836Z,78912
2018-07-10T11:44:09.663Z,91872
2018-07-10T11:45:19.745Z,95168
2018-07-10T11:46:29.270Z,97280
2018-07-10T11:47:39.356Z,95648
2018-07-10T11:48:49.221Z,97664
2018-07-10T11:49:59.299Z,95744
2018-07-10T11:51:08.843Z,97248
2018-07-10T11:52:18.926Z,97728
2018-07-10T11:53:29.023Z,96512
2018-07-10T11:54:38.909Z,96352
2018-07-10T11:55:49.001Z,97856
2018-07-10T11:56:59.080Z,95840
2018-07-10T11:58:08.914Z,95840
2018-07-10T11:59:18.998Z,89632
2018-07-10T12:00:29.121Z,89312
2018-07-10T12:01:39.190Z,89312
2018-07-10T12:02:48.998Z,81984
2018-07-10T12:03:59.090Z,70720
2018-07-10T12:05:08.639Z,70080
2018-07-10T12:06:18.779Z,77408
2018-07-10T12:07:28.888Z,90304
2018-07-10T12:08:38.978Z,88928
2018-07-10T12:09:48.521Z,86272
2018-07-10T12:10:58.334Z,87872
2018-07-10T12:12:08.467Z,90048
2018-07-10T12:13:18.602Z,89248
2018-07-10T12:14:28.406Z,88096
2018-07-10T12:15:38.487Z,84320
2018-07-10T12:16:48.046Z,82848
2018-07-10T12:17:57.658Z,84544
2018-07-10T12:19:07.778Z,77952
2018-07-10T12:20:17.871Z,74752
2018-07-10T12:21:27.967Z,77280
2018-07-10T12:22:37.789Z,80672
2018-07-10T12:23:47.936Z,80352
2018-07-10T12:24:57.226Z,79808
2018-07-10T12:26:06.486Z,86656
2018-07-10T12:27:16.034Z,90464
2018-07-10T12:28:25.843Z,89024
2018-07-10T12:29:35.992Z,86912
2018-07-10T12:30:45.822Z,85184
2018-07-10T12:31:55.660Z,85408
2018-07-10T12:33:05.753Z,87968
2018-07-10T12:34:15.585Z,89344
2018-07-10T12:35:25.450Z,87232
2018-07-10T12:36:35.279Z,91040
2018-07-10T12:37:45.371Z,90848
2018-07-10T12:38:55.453Z,89472
2018-07-10T12:40:05.003Z,89056
2018-07-10T12:41:14.882Z,86560
2018-07-10T12:42:24.961Z,86304
2018-07-10T12:43:34.515Z,84480
2018-07-10T12:44:44.080Z,80320
2018-07-10T12:45:54.234Z,82528
2018-07-10T12:47:05.846Z,85792
2018-07-10T12:48:15.664Z,88000
2018-07-10T12:49:25.622Z,85120
2018-07-10T12:50:35.202Z,79584
2018-07-10T12:51:44.753Z,88064
2018-07-10T12:52:54.643Z,88896
2018-07-10T12:54:04.742Z,89248
2018-07-10T12:55:14.566Z,87968
2018-07-10T12:56:24.524Z,91456
2018-07-10T12:57:34.332Z,91552
2018-07-10T12:58:44.199Z,91072
2018-07-10T12:59:54.031Z,90432
2018-07-10T13:01:04.135Z,86048
2018-07-10T13:02:13.687Z,86240
2018-07-10T13:03:23.508Z,90304
2018-07-10T13:04:33.293Z,90016
2018-07-10T13:05:42.844Z,90464
2018-07-10T13:06:52.654Z,91360
2018-07-10T13:08:02.214Z,93184
2018-07-10T13:09:11.776Z,92896
2018-07-10T13:10:22.162Z,89760
2018-07-10T13:11:31.976Z,91040
2018-07-10T13:12:41.259Z,89408
2018-07-10T13:13:51.077Z,87392
2018-07-10T13:15:00.903Z,90144
2018-07-10T13:16:10.805Z,89440
2018-07-10T13:17:20.620Z,92960
2018-07-10T13:18:30.856Z,93472
2018-07-10T13:19:40.961Z,87456
2018-07-10T13:20:51.059Z,80256
2018-07-10T13:22:00.937Z,80608
2018-07-10T13:23:10.761Z,86112
2018-07-10T13:24:20.838Z,94944
2018-07-10T13:25:30.686Z,95264
2018-07-10T13:26:40.519Z,93344
2018-07-10T13:27:49.865Z,96320
2018-07-10T13:28:59.420Z,99712
2018-07-10T13:30:09.548Z,94144
2018-07-10T13:31:19.369Z,89088
2018-07-10T13:32:29.453Z,91520
2018-07-10T13:33:39.340Z,21632
2018-07-10T13:34:48.352Z,91936
2018-07-10T13:35:58.508Z,92640
2018-07-10T13:37:08.683Z,94688
2018-07-10T13:38:18.496Z,91008
2018-07-10T13:39:28.104Z,85536
2018-07-10T13:40:38.202Z,78208
2018-07-10T13:41:48.309Z,87232
2018-07-10T13:42:58.407Z,91488
2018-07-10T13:44:08.500Z,87264
2018-07-10T13:45:18.654Z,87008
2018-07-10T13:46:28.750Z,90976
2018-07-10T13:47:38.847Z,91616
2018-07-10T13:48:48.675Z,90784
2018-07-10T13:49:58.476Z,93952
2018-07-10T13:51:07.795Z,104352
2018-07-10T13:52:17.359Z,105568
2018-07-10T13:53:27.179Z,98880
2018-07-10T13:54:36.998Z,90432
2018-07-10T13:55:46.570Z,84736
2018-07-10T13:56:56.679Z,81056
2018-07-10T13:58:07.038Z,76480
2018-07-10T13:59:16.863Z,80704
2018-07-10T14:00:26.166Z,81824
2018-07-10T14:01:35.702Z,81952
2018-07-10T14:02:45.871Z,85536
2018-07-10T14:03:55.435Z,83712
2018-07-10T14:05:05.252Z,89440
2018-07-10T14:06:14.808Z,91328
2018-07-10T14:07:24.647Z,93280
2018-07-10T14:08:33.988Z,90016
2018-07-10T14:09:43.549Z,89184
2018-07-10T14:10:53.651Z,89344
2018-07-10T14:12:03.749Z,86848
2018-07-10T14:13:13.295Z,87456
2018-07-10T14:14:23.453Z,91136
2018-07-10T14:15:32.735Z,89888
2018-07-10T14:16:42.830Z,83328
2018-07-10T14:17:52.658Z,84960
2018-07-10T14:19:02.478Z,84960
2018-07-10T14:20:12.335Z,84160
2018-07-10T14:21:22.427Z,82496
2018-07-10T14:22:31.848Z,79744
2018-07-10T14:23:41.949Z,80992
2018-07-10T14:24:51.783Z,85472
2018-07-10T14:26:01.670Z,85312
2018-07-10T14:27:11.476Z,84992
2018-07-10T14:28:21.619Z,83328
2018-07-10T14:29:31.623Z,81760
2018-07-10T14:30:40.626Z,83168
2018-07-10T14:31:50.776Z,82624
2018-07-10T14:33:00.861Z,80640
2018-07-10T14:34:10.151Z,77728
2018-07-10T14:35:20.239Z,75520
2018-07-10T14:36:30.077Z,76800
2018-07-10T14:37:39.968Z,75616
2018-07-10T14:38:50.073Z,76640
2018-07-10T14:40:00.159Z,76992
2018-07-10T14:41:09.984Z,76896
2018-07-10T14:42:20.091Z,77184
2018-07-10T14:43:30.234Z,77696
2018-07-10T14:44:40.329Z,74880
2018-07-10T14:45:50.416Z,70688
2018-07-10T14:47:00.518Z,72384
2018-07-10T14:48:10.600Z,73184
2018-07-10T14:49:20.476Z,70080
2018-07-10T14:50:30.561Z,71168
2018-07-10T14:51:40.644Z,71488
2018-07-10T14:52:50.814Z,69696
2018-07-10T14:54:00.934Z,71840
2018-07-10T14:55:10.558Z,81696
2018-07-10T14:56:20.659Z,93568
2018-07-10T14:57:30.488Z,87328
2018-07-10T14:58:40.585Z,67488
2018-07-10T14:59:50.688Z,57696
2018-07-10T15:01:00.586Z,53216
2018-07-10T15:02:10.400Z,45728
2018-07-10T15:03:19.970Z,44256
2018-07-10T15:04:29.793Z,45952
2018-07-10T15:05:39.888Z,48032
2018-07-10T15:06:50.041Z,49568
2018-07-10T15:08:00.245Z,48768
2018-07-10T15:09:09.930Z,50784
2018-07-10T15:10:20.046Z,56320
2018-07-10T15:11:29.333Z,61856
2018-07-10T15:12:38.665Z,69216
2018-07-10T15:13:48.485Z,72352
2018-07-10T15:14:59.670Z,70880
2018-07-10T15:16:10.043Z,71040
2018-07-10T15:17:20.134Z,69696
2018-07-10T15:18:30.007Z,68192
2018-07-10T15:19:39.831Z,70080
2018-07-10T15:20:49.921Z,73952
2018-07-10T15:22:00.046Z,78016
2018-07-10T15:23:09.873Z,77504
2018-07-10T15:24:19.523Z,77184
2018-07-10T15:25:29.351Z,77728
2018-07-10T15:26:39.170Z,78432
2018-07-10T15:27:49.004Z,80960
2018-07-10T15:28:59.109Z,80224
2018-07-10T15:30:09.700Z,83136
2018-07-10T15:31:19.882Z,88992
2018-07-10T15:32:29.990Z,90880
2018-07-10T15:33:40.085Z,88096
2018-07-10T15:34:49.909Z,84864
2018-07-10T15:36:00.070Z,87136
2018-07-10T15:37:09.900Z,89248